Stillman Valley, Illinois
Current Conditions -  °F | °C
As of 9:54 AM on Thursday 27 Nov 2014 (Local Time) from KRFD Reporting Station
Light Snow Light Snow  
Wind Chill: 14°   Ceiling: 2000
Heat Index: 24°   Visibility: 9mi
Dew Point: 16°   Wind: 10mph
Humidity: 71%   Direction: 330°NNW
Pressure: 30.38"   Gusts: NA
Location:  42.11°N, 89.18°W
Report Text: KRFD 271554Z 33009KT 9SM -SN BKN020 OVC025 M04/M09 A3038 RMK AO2 SLP301 P0000 T10441089
Loading
Personal Weather Stations






























Interactive Weather Map New forecast layout! Learn more

10-Day Weather Forecast

Advertisements
Track Severe Weather on mobile